sensor_id;sensor_type;location;lat;lon;timestamp;pressure;altitude;pressure_sealevel;temperature
31528;BMP280;10206;48.012;10.030;2022-12-15T00:01:20;93304.38;;;4.04
31528;BMP280;10206;48.012;10.030;2022-12-15T00:04:05;93309.63;;;3.77
31528;BMP280;10206;48.012;10.030;2022-12-15T00:06:50;93299.72;;;3.79
31528;BMP280;10206;48.012;10.030;2022-12-15T00:09:35;93308.81;;;3.67
31528;BMP280;10206;48.012;10.030;2022-12-15T00:12:19;93300.81;;;3.27
31528;BMP280;10206;48.012;10.030;2022-12-15T00:15:04;93298.44;;;3.39
31528;BMP280;10206;48.012;10.030;2022-12-15T00:17:49;93305.75;;;3.21
31528;BMP280;10206;48.012;10.030;2022-12-15T00:20:34;93298.38;;;3.46
31528;BMP280;10206;48.012;10.030;2022-12-15T00:23:18;93298.75;;;3.18
31528;BMP280;10206;48.012;10.030;2022-12-15T00:26:03;93307.72;;;2.88
31528;BMP280;10206;48.012;10.030;2022-12-15T00:28:48;93313.38;;;3.32
31528;BMP280;10206;48.012;10.030;2022-12-15T00:31:33;93311.53;;;3.42
31528;BMP280;10206;48.012;10.030;2022-12-15T00:34:17;93314.84;;;3.50
31528;BMP280;10206;48.012;10.030;2022-12-15T00:37:02;93326.69;;;3.55
31528;BMP280;10206;48.012;10.030;2022-12-15T00:39:46;93323.41;;;3.64
31528;BMP280;10206;48.012;10.030;2022-12-15T00:42:24;93323.63;;;3.58
31528;BMP280;10206;48.012;10.030;2022-12-15T00:44:50;93319.44;;;3.65
31528;BMP280;10206;48.012;10.030;2022-12-15T00:47:16;93319.16;;;3.53
31528;BMP280;10206;48.012;10.030;2022-12-15T00:49:42;93321.25;;;3.62
31528;BMP280;10206;48.012;10.030;2022-12-15T00:52:27;93324.53;;;3.53
31528;BMP280;10206;48.012;10.030;2022-12-15T00:55:11;93327.56;;;3.33
31528;BMP280;10206;48.012;10.030;2022-12-15T00:57:56;93333.97;;;3.45
31528;BMP280;10206;48.012;10.030;2022-12-15T01:00:40;93337.59;;;3.64
31528;BMP280;10206;48.012;10.030;2022-12-15T01:03:25;93339.09;;;3.50
31528;BMP280;10206;48.012;10.030;2022-12-15T01:06:12;93344.13;;;3.21
31528;BMP280;10206;48.012;10.030;2022-12-15T01:08:58;93340.88;;;3.55
31528;BMP280;10206;48.012;10.030;2022-12-15T01:11:44;93345.38;;;3.53
31528;BMP280;10206;48.012;10.030;2022-12-15T01:14:29;93357.56;;;3.61
31528;BMP280;10206;48.012;10.030;2022-12-15T01:17:15;93363.59;;;3.45
31528;BMP280;10206;48.012;10.030;2022-12-15T01:20:00;93367.13;;;3.55
31528;BMP280;10206;48.012;10.030;2022-12-15T01:22:41;93365.91;;;3.48
31528;BMP280;10206;48.012;10.030;2022-12-15T01:25:08;93373.09;;;3.13
31528;BMP280;10206;48.012;10.030;2022-12-15T01:27:35;93373.75;;;3.21
31528;BMP280;10206;48.012;10.030;2022-12-15T01:30:02;93377.41;;;3.16
31528;BMP280;10206;48.012;10.030;2022-12-15T01:32:28;93380.16;;;3.33
31528;BMP280;10206;48.012;10.030;2022-12-15T01:34:54;93380.00;;;3.31
31528;BMP280;10206;48.012;10.030;2022-12-15T01:37:20;93385.63;;;2.86
31528;BMP280;10206;48.012;10.030;2022-12-15T01:39:46;93387.34;;;2.99
31528;BMP280;10206;48.012;10.030;2022-12-15T01:42:31;93395.47;;;3.23
31528;BMP280;10206;48.012;10.030;2022-12-15T01:48:06;93396.63;;;3.13
31528;BMP280;10206;48.012;10.030;2022-12-15T01:50:49;93394.13;;;3.07
31528;BMP280;10206;48.012;10.030;2022-12-15T01:53:18;93398.16;;;3.31
31528;BMP280;10206;48.012;10.030;2022-12-15T01:55:46;93406.38;;;3.33
31528;BMP280;10206;48.012;10.030;2022-12-15T01:58:13;93404.94;;;3.40
31528;BMP280;10206;48.012;10.030;2022-12-15T02:00:41;93397.34;;;3.46
31528;BMP280;10206;48.012;10.030;2022-12-15T02:03:07;93404.47;;;3.26
31528;BMP280;10206;48.012;10.030;2022-12-15T02:05:34;93405.56;;;3.23
31528;BMP280;10206;48.012;10.030;2022-12-15T02:08:02;93400.84;;;3.31
31528;BMP280;10206;48.012;10.030;2022-12-15T02:10:48;93404.06;;;3.37
31528;BMP280;10206;48.012;10.030;2022-12-15T02:13:25;93399.16;;;3.43
31528;BMP280;10206;48.012;10.030;2022-12-15T02:16:01;93400.38;;;3.50
31528;BMP280;10206;48.012;10.030;2022-12-15T02:18:58;93406.75;;;3.62
31528;BMP280;10206;48.012;10.030;2022-12-15T02:21:36;93401.84;;;3.43
31528;BMP280;10206;48.012;10.030;2022-12-15T02:24:37;93404.56;;;3.43
31528;BMP280;10206;48.012;10.030;2022-12-15T02:30:33;93415.13;;;3.49
31528;BMP280;10206;48.012;10.030;2022-12-15T02:35:55;93414.34;;;3.56
31528;BMP280;10206;48.012;10.030;2022-12-15T02:38:33;93409.41;;;3.45
31528;BMP280;10206;48.012;10.030;2022-12-15T02:41:01;93404.66;;;3.53
31528;BMP280;10206;48.012;10.030;2022-12-15T02:43:29;93422.47;;;3.48
31528;BMP280;10206;48.012;10.030;2022-12-15T02:56:36;93407.56;;;3.47
31528;BMP280;10206;48.012;10.030;2022-12-15T03:01:55;93415.56;;;3.30
31528;BMP280;10206;48.012;10.030;2022-12-15T03:04:22;93420.94;;;3.38
31528;BMP280;10206;48.012;10.030;2022-12-15T03:06:56;93426.09;;;3.43
31528;BMP280;10206;48.012;10.030;2022-12-15T03:09:23;93425.22;;;3.41
31528;BMP280;10206;48.012;10.030;2022-12-15T03:11:49;93421.81;;;3.40
31528;BMP280;10206;48.012;10.030;2022-12-15T03:14:15;93429.53;;;3.44
31528;BMP280;10206;48.012;10.030;2022-12-15T03:16:42;93431.97;;;3.17
31528;BMP280;10206;48.012;10.030;2022-12-15T03:19:08;93437.63;;;3.36
31528;BMP280;10206;48.012;10.030;2022-12-15T03:21:34;93439.28;;;3.24
31528;BMP280;10206;48.012;10.030;2022-12-15T03:24:00;93428.66;;;3.41
31528;BMP280;10206;48.012;10.030;2022-12-15T03:26:26;93428.31;;;3.29
31528;BMP280;10206;48.012;10.030;2022-12-15T03:28:52;93432.44;;;3.38
31528;BMP280;10206;48.012;10.030;2022-12-15T03:31:19;93435.88;;;3.31
31528;BMP280;10206;48.012;10.030;2022-12-15T03:33:45;93429.91;;;3.40
31528;BMP280;10206;48.012;10.030;2022-12-15T03:36:11;93436.47;;;3.14
31528;BMP280;10206;48.012;10.030;2022-12-15T03:38:37;93434.41;;;3.38
31528;BMP280;10206;48.012;10.030;2022-12-15T03:41:03;93436.34;;;3.45
31528;BMP280;10206;48.012;10.030;2022-12-15T03:43:29;93439.59;;;3.43
31528;BMP280;10206;48.012;10.030;2022-12-15T03:45:55;93447.78;;;3.20
31528;BMP280;10206;48.012;10.030;2022-12-15T03:48:21;93451.31;;;3.30
31528;BMP280;10206;48.012;10.030;2022-12-15T03:50:48;93450.34;;;3.43
31528;BMP280;10206;48.012;10.030;2022-12-15T03:53:14;93444.09;;;3.41
31528;BMP280;10206;48.012;10.030;2022-12-15T03:55:41;93452.38;;;3.35
31528;BMP280;10206;48.012;10.030;2022-12-15T03:58:07;93444.44;;;3.45
31528;BMP280;10206;48.012;10.030;2022-12-15T04:00:33;93450.56;;;3.45
31528;BMP280;10206;48.012;10.030;2022-12-15T04:02:59;93456.16;;;3.32
31528;BMP280;10206;48.012;10.030;2022-12-15T04:05:33;93455.28;;;3.22
31528;BMP280;10206;48.012;10.030;2022-12-15T04:08:00;93459.91;;;3.37
31528;BMP280;10206;48.012;10.030;2022-12-15T04:10:29;93455.44;;;3.31
31528;BMP280;10206;48.012;10.030;2022-12-15T04:12:59;93461.88;;;3.36
31528;BMP280;10206;48.012;10.030;2022-12-15T04:15:25;93458.63;;;3.45
31528;BMP280;10206;48.012;10.030;2022-12-15T04:17:52;93469.41;;;3.45
31528;BMP280;10206;48.012;10.030;2022-12-15T04:20:18;93467.75;;;3.50
31528;BMP280;10206;48.012;10.030;2022-12-15T04:22:46;93461.19;;;3.28
31528;BMP280;10206;48.012;10.030;2022-12-15T04:25:18;93461.50;;;3.40
31528;BMP280;10206;48.012;10.030;2022-12-15T04:28:03;93465.84;;;3.35
31528;BMP280;10206;48.012;10.030;2022-12-15T04:33:47;93460.47;;;3.35
31528;BMP280;10206;48.012;10.030;2022-12-15T04:36:34;93465.16;;;3.27
31528;BMP280;10206;48.012;10.030;2022-12-15T04:39:19;93459.28;;;3.53
31528;BMP280;10206;48.012;10.030;2022-12-15T04:42:03;93466.13;;;3.54
31528;BMP280;10206;48.012;10.030;2022-12-15T04:44:49;93477.31;;;3.43
31528;BMP280;10206;48.012;10.030;2022-12-15T04:47:38;93481.19;;;3.57
31528;BMP280;10206;48.012;10.030;2022-12-15T04:50:23;93486.59;;;3.50
31528;BMP280;10206;48.012;10.030;2022-12-15T04:53:15;93484.16;;;3.37
31528;BMP280;10206;48.012;10.030;2022-12-15T04:56:01;93489.69;;;3.46
31528;BMP280;10206;48.012;10.030;2022-12-15T04:58:47;93488.22;;;3.13
31528;BMP280;10206;48.012;10.030;2022-12-15T05:01:32;93480.09;;;3.20
31528;BMP280;10206;48.012;10.030;2022-12-15T05:04:17;93486.78;;;3.04
31528;BMP280;10206;48.012;10.030;2022-12-15T05:07:02;93478.81;;;3.21
31528;BMP280;10206;48.012;10.030;2022-12-15T05:09:46;93481.38;;;3.04
31528;BMP280;10206;48.012;10.030;2022-12-15T05:12:31;93493.59;;;2.98
31528;BMP280;10206;48.012;10.030;2022-12-15T05:15:16;93487.69;;;2.99
31528;BMP280;10206;48.012;10.030;2022-12-15T05:18:00;93482.47;;;3.09
31528;BMP280;10206;48.012;10.030;2022-12-15T05:20:45;93479.78;;;3.01
31528;BMP280;10206;48.012;10.030;2022-12-15T05:23:29;93488.75;;;3.04
31528;BMP280;10206;48.012;10.030;2022-12-15T05:26:14;93489.94;;;3.25
31528;BMP280;10206;48.012;10.030;2022-12-15T05:28:58;93498.66;;;2.94
31528;BMP280;10206;48.012;10.030;2022-12-15T05:31:43;93497.56;;;2.97
31528;BMP280;10206;48.012;10.030;2022-12-15T05:34:13;93509.56;;;3.11
31528;BMP280;10206;48.012;10.030;2022-12-15T05:36:39;93504.72;;;3.02
31528;BMP280;10206;48.012;10.030;2022-12-15T05:39:05;93501.81;;;3.22
31528;BMP280;10206;48.012;10.030;2022-12-15T05:41:31;93507.72;;;3.28
31528;BMP280;10206;48.012;10.030;2022-12-15T05:43:57;93511.69;;;3.20
31528;BMP280;10206;48.012;10.030;2022-12-15T05:46:23;93520.47;;;3.36
31528;BMP280;10206;48.012;10.030;2022-12-15T05:48:49;93518.66;;;3.38
31528;BMP280;10206;48.012;10.030;2022-12-15T05:51:15;93524.06;;;3.23
31528;BMP280;10206;48.012;10.030;2022-12-15T05:53:42;93516.03;;;3.08
31528;BMP280;10206;48.012;10.030;2022-12-15T05:56:12;93518.38;;;2.96
31528;BMP280;10206;48.012;10.030;2022-12-15T05:58:40;93526.63;;;2.98
31528;BMP280;10206;48.012;10.030;2022-12-15T06:01:12;93527.00;;;3.10
31528;BMP280;10206;48.012;10.030;2022-12-15T06:03:39;93517.72;;;2.81
31528;BMP280;10206;48.012;10.030;2022-12-15T06:06:07;93525.59;;;2.79
31528;BMP280;10206;48.012;10.030;2022-12-15T06:08:35;93529.03;;;2.56
31528;BMP280;10206;48.012;10.030;2022-12-15T06:11:02;93518.06;;;2.47
31528;BMP280;10206;48.012;10.030;2022-12-15T06:13:29;93513.41;;;2.78
31528;BMP280;10206;48.012;10.030;2022-12-15T06:16:05;93515.72;;;2.73
31528;BMP280;10206;48.012;10.030;2022-12-15T06:18:34;93516.81;;;2.48
31528;BMP280;10206;48.012;10.030;2022-12-15T06:21:07;93514.31;;;2.42
31528;BMP280;10206;48.012;10.030;2022-12-15T06:23:34;93512.31;;;2.65
31528;BMP280;10206;48.012;10.030;2022-12-15T06:26:25;93517.00;;;2.50
31528;BMP280;10206;48.012;10.030;2022-12-15T06:28:53;93518.78;;;2.78
31528;BMP280;10206;48.012;10.030;2022-12-15T06:31:20;93530.09;;;2.53
31528;BMP280;10206;48.012;10.030;2022-12-15T06:33:51;93539.59;;;2.69
31528;BMP280;10206;48.012;10.030;2022-12-15T06:36:17;93542.09;;;2.67
31528;BMP280;10206;48.012;10.030;2022-12-15T06:38:44;93537.06;;;2.71
31528;BMP280;10206;48.012;10.030;2022-12-15T06:41:14;93546.94;;;2.77
31528;BMP280;10206;48.012;10.030;2022-12-15T06:43:40;93534.41;;;2.87
31528;BMP280;10206;48.012;10.030;2022-12-15T06:46:07;93533.66;;;2.63
31528;BMP280;10206;48.012;10.030;2022-12-15T06:48:34;93532.75;;;2.68
31528;BMP280;10206;48.012;10.030;2022-12-15T06:51:04;93532.59;;;2.59
31528;BMP280;10206;48.012;10.030;2022-12-15T06:53:31;93532.75;;;2.91
31528;BMP280;10206;48.012;10.030;2022-12-15T06:56:02;93533.84;;;2.81
31528;BMP280;10206;48.012;10.030;2022-12-15T06:58:28;93533.13;;;2.88
31528;BMP280;10206;48.012;10.030;2022-12-15T07:00:55;93546.19;;;2.99
31528;BMP280;10206;48.012;10.030;2022-12-15T07:03:22;93556.09;;;2.89
31528;BMP280;10206;48.012;10.030;2022-12-15T07:05:48;93557.88;;;2.94
31528;BMP280;10206;48.012;10.030;2022-12-15T07:08:24;93544.75;;;3.05
31528;BMP280;10206;48.012;10.030;2022-12-15T07:10:50;93554.22;;;3.21
31528;BMP280;10206;48.012;10.030;2022-12-15T07:13:17;93548.31;;;3.23
31528;BMP280;10206;48.012;10.030;2022-12-15T07:15:43;93546.38;;;3.08
31528;BMP280;10206;48.012;10.030;2022-12-15T07:18:09;93551.78;;;2.70
31528;BMP280;10206;48.012;10.030;2022-12-15T07:20:36;93547.69;;;2.62
31528;BMP280;10206;48.012;10.030;2022-12-15T07:23:02;93552.69;;;2.81
31528;BMP280;10206;48.012;10.030;2022-12-15T07:25:38;93561.09;;;3.15
31528;BMP280;10206;48.012;10.030;2022-12-15T07:28:05;93551.94;;;3.03
31528;BMP280;10206;48.012;10.030;2022-12-15T07:30:32;93560.22;;;2.82
31528;BMP280;10206;48.012;10.030;2022-12-15T07:32:59;93553.75;;;2.93
31528;BMP280;10206;48.012;10.030;2022-12-15T07:35:25;93560.25;;;2.90
31528;BMP280;10206;48.012;10.030;2022-12-15T07:37:51;93555.72;;;3.00
31528;BMP280;10206;48.012;10.030;2022-12-15T07:40:18;93567.06;;;2.83
31528;BMP280;10206;48.012;10.030;2022-12-15T07:42:44;93563.81;;;2.77
31528;BMP280;10206;48.012;10.030;2022-12-15T07:45:10;93571.19;;;2.54
31528;BMP280;10206;48.012;10.030;2022-12-15T07:47:36;93578.34;;;2.59
31528;BMP280;10206;48.012;10.030;2022-12-15T07:50:05;93588.75;;;3.00
31528;BMP280;10206;48.012;10.030;2022-12-15T07:52:31;93597.38;;;2.99
31528;BMP280;10206;48.012;10.030;2022-12-15T07:54:57;93593.59;;;3.02
31528;BMP280;10206;48.012;10.030;2022-12-15T07:57:23;93589.47;;;2.70
31528;BMP280;10206;48.012;10.030;2022-12-15T07:59:50;93599.69;;;2.49
31528;BMP280;10206;48.012;10.030;2022-12-15T08:02:16;93604.19;;;2.62
31528;BMP280;10206;48.012;10.030;2022-12-15T08:04:42;93605.28;;;2.74
31528;BMP280;10206;48.012;10.030;2022-12-15T08:07:09;93605.56;;;2.33
31528;BMP280;10206;48.012;10.030;2022-12-15T08:09:36;93614.22;;;2.54
31528;BMP280;10206;48.012;10.030;2022-12-15T08:12:02;93609.75;;;2.79
31528;BMP280;10206;48.012;10.030;2022-12-15T08:14:28;93620.00;;;2.88
31528;BMP280;10206;48.012;10.030;2022-12-15T08:16:55;93618.53;;;3.02
31528;BMP280;10206;48.012;10.030;2022-12-15T08:19:21;93615.53;;;2.91
31528;BMP280;10206;48.012;10.030;2022-12-15T08:21:47;93631.13;;;3.00
31528;BMP280;10206;48.012;10.030;2022-12-15T08:24:14;93630.75;;;3.26
31528;BMP280;10206;48.012;10.030;2022-12-15T08:26:41;93631.84;;;3.00
31528;BMP280;10206;48.012;10.030;2022-12-15T08:29:10;93630.94;;;3.05
31528;BMP280;10206;48.012;10.030;2022-12-15T08:31:37;93618.34;;;3.23
31528;BMP280;10206;48.012;10.030;2022-12-15T08:34:04;93619.41;;;3.27
31528;BMP280;10206;48.012;10.030;2022-12-15T08:36:31;93617.34;;;3.73
31528;BMP280;10206;48.012;10.030;2022-12-15T08:38:59;93609.53;;;3.45
31528;BMP280;10206;48.012;10.030;2022-12-15T08:41:30;93621.34;;;3.57
31528;BMP280;10206;48.012;10.030;2022-12-15T08:43:58;93614.50;;;3.56
31528;BMP280;10206;48.012;10.030;2022-12-15T08:46:26;93606.78;;;3.68
31528;BMP280;10206;48.012;10.030;2022-12-15T08:48:53;93603.34;;;3.67
31528;BMP280;10206;48.012;10.030;2022-12-15T08:51:20;93625.13;;;3.54
31528;BMP280;10206;48.012;10.030;2022-12-15T08:53:47;93620.63;;;3.49
31528;BMP280;10206;48.012;10.030;2022-12-15T08:56:16;93609.47;;;3.53
31528;BMP280;10206;48.012;10.030;2022-12-15T08:58:44;93606.63;;;3.51
31528;BMP280;10206;48.012;10.030;2022-12-15T09:01:18;93608.41;;;3.56
31528;BMP280;10206;48.012;10.030;2022-12-15T09:03:48;93597.88;;;3.35
31528;BMP280;10206;48.012;10.030;2022-12-15T09:06:23;93595.44;;;3.62
31528;BMP280;10206;48.012;10.030;2022-12-15T09:08:49;93595.44;;;3.69
31528;BMP280;10206;48.012;10.030;2022-12-15T09:11:18;93586.13;;;3.55
31528;BMP280;10206;48.012;10.030;2022-12-15T09:13:44;93589.91;;;3.52
31528;BMP280;10206;48.012;10.030;2022-12-15T09:16:15;93594.81;;;3.39
31528;BMP280;10206;48.012;10.030;2022-12-15T09:18:47;93599.13;;;3.34
31528;BMP280;10206;48.012;10.030;2022-12-15T09:21:14;93596.06;;;3.45
31528;BMP280;10206;48.012;10.030;2022-12-15T09:23:40;93605.97;;;3.82
31528;BMP280;10206;48.012;10.030;2022-12-15T09:26:11;93606.63;;;3.58
31528;BMP280;10206;48.012;10.030;2022-12-15T09:28:39;93610.41;;;3.55
31528;BMP280;10206;48.012;10.030;2022-12-15T09:31:11;93614.34;;;3.54
31528;BMP280;10206;48.012;10.030;2022-12-15T09:33:38;93607.16;;;3.57
31528;BMP280;10206;48.012;10.030;2022-12-15T09:36:05;93615.28;;;3.97
31528;BMP280;10206;48.012;10.030;2022-12-15T09:38:36;93624.78;;;3.98
31528;BMP280;10206;48.012;10.030;2022-12-15T09:44:02;93614.06;;;4.22
31528;BMP280;10206;48.012;10.030;2022-12-15T09:46:34;93616.97;;;4.17
31528;BMP280;10206;48.012;10.030;2022-12-15T09:49:32;93619.34;;;4.13
31528;BMP280;10206;48.012;10.030;2022-12-15T09:55:28;93604.56;;;4.14
31528;BMP280;10206;48.012;10.030;2022-12-15T09:57:57;93601.75;;;4.04
31528;BMP280;10206;48.012;10.030;2022-12-15T10:00:37;93590.66;;;4.32
31528;BMP280;10206;48.012;10.030;2022-12-15T10:08:30;93557.59;;;4.17
31528;BMP280;10206;48.012;10.030;2022-12-15T10:11:00;93542.69;;;4.16
31528;BMP280;10206;48.012;10.030;2022-12-15T10:13:55;93535.72;;;4.13
31528;BMP280;10206;48.012;10.030;2022-12-15T10:16:47;93532.84;;;3.78
31528;BMP280;10206;48.012;10.030;2022-12-15T10:19:40;93529.28;;;4.01
31528;BMP280;10206;48.012;10.030;2022-12-15T10:22:13;93528.38;;;4.06
31528;BMP280;10206;48.012;10.030;2022-12-15T10:24:41;93536.50;;;4.55
31528;BMP280;10206;48.012;10.030;2022-12-15T10:27:19;93542.25;;;4.34
31528;BMP280;10206;48.012;10.030;2022-12-15T10:30:08;93549.50;;;4.17
31528;BMP280;10206;48.012;10.030;2022-12-15T10:35:16;93547.28;;;4.55
31528;BMP280;10206;48.012;10.030;2022-12-15T10:37:43;93547.44;;;4.57
31528;BMP280;10206;48.012;10.030;2022-12-15T10:40:13;93556.41;;;4.60
31528;BMP280;10206;48.012;10.030;2022-12-15T10:42:48;93548.09;;;4.65
31528;BMP280;10206;48.012;10.030;2022-12-15T10:45:37;93544.13;;;4.66
31528;BMP280;10206;48.012;10.030;2022-12-15T10:48:03;93538.59;;;4.81
31528;BMP280;10206;48.012;10.030;2022-12-15T10:50:32;93539.94;;;4.73
31528;BMP280;10206;48.012;10.030;2022-12-15T10:52:59;93541.09;;;4.62
31528;BMP280;10206;48.012;10.030;2022-12-15T10:55:39;93542.75;;;4.82
31528;BMP280;10206;48.012;10.030;2022-12-15T10:58:18;93542.41;;;4.78
31528;BMP280;10206;48.012;10.030;2022-12-15T11:00:46;93528.31;;;4.63
31528;BMP280;10206;48.012;10.030;2022-12-15T11:03:25;93545.53;;;4.50
31528;BMP280;10206;48.012;10.030;2022-12-15T11:05:55;93541.00;;;4.53
31528;BMP280;10206;48.012;10.030;2022-12-15T11:08:23;93548.22;;;4.50
31528;BMP280;10206;48.012;10.030;2022-12-15T11:10:53;93551.88;;;4.45
31528;BMP280;10206;48.012;10.030;2022-12-15T11:13:38;93553.50;;;4.16
31528;BMP280;10206;48.012;10.030;2022-12-15T11:16:23;93546.53;;;4.13
31528;BMP280;10206;48.012;10.030;2022-12-15T11:19:01;93540.63;;;4.07
31528;BMP280;10206;48.012;10.030;2022-12-15T11:21:35;93543.72;;;4.53
31528;BMP280;10206;48.012;10.030;2022-12-15T11:29:58;93520.81;;;3.72
31528;BMP280;10206;48.012;10.030;2022-12-15T11:32:28;93509.06;;;3.92
31528;BMP280;10206;48.012;10.030;2022-12-15T11:34:57;93498.81;;;3.91
31528;BMP280;10206;48.012;10.030;2022-12-15T11:37:35;93495.41;;;4.15
31528;BMP280;10206;48.012;10.030;2022-12-15T11:40:22;93489.38;;;3.74
31528;BMP280;10206;48.012;10.030;2022-12-15T11:45:34;93479.50;;;4.02
31528;BMP280;10206;48.012;10.030;2022-12-15T11:53:05;93477.91;;;3.66
31528;BMP280;10206;48.012;10.030;2022-12-15T12:06:29;93453.88;;;3.53
31528;BMP280;10206;48.012;10.030;2022-12-15T12:09:14;93462.38;;;3.10
31528;BMP280;10206;48.012;10.030;2022-12-15T12:15:00;93469.53;;;3.15
31528;BMP280;10206;48.012;10.030;2022-12-15T12:20:27;93475.44;;;3.13
31528;BMP280;10206;48.012;10.030;2022-12-15T12:23:08;93475.44;;;3.13
31528;BMP280;10206;48.012;10.030;2022-12-15T12:26:04;93461.47;;;3.00
31528;BMP280;10206;48.012;10.030;2022-12-15T12:28:57;93470.28;;;3.00
31528;BMP280;10206;48.012;10.030;2022-12-15T12:31:49;93464.13;;;3.55
31528;BMP280;10206;48.012;10.030;2022-12-15T12:34:26;93473.69;;;3.48
31528;BMP280;10206;48.012;10.030;2022-12-15T12:36:59;93477.44;;;3.13
31528;BMP280;10206;48.012;10.030;2022-12-15T12:39:26;93471.94;;;2.81
31528;BMP280;10206;48.012;10.030;2022-12-15T12:42:14;93475.34;;;2.73
31528;BMP280;10206;48.012;10.030;2022-12-15T12:44:43;93472.34;;;3.24
31528;BMP280;10206;48.012;10.030;2022-12-15T12:47:31;93476.28;;;3.31
31528;BMP280;10206;48.012;10.030;2022-12-15T12:50:03;93468.75;;;3.22
31528;BMP280;10206;48.012;10.030;2022-12-15T12:52:33;93464.50;;;3.11
31528;BMP280;10206;48.012;10.030;2022-12-15T12:57:39;93451.38;;;3.15
31528;BMP280;10206;48.012;10.030;2022-12-15T13:00:17;93440.16;;;2.87
31528;BMP280;10206;48.012;10.030;2022-12-15T13:05:31;93431.66;;;3.13
31528;BMP280;10206;48.012;10.030;2022-12-15T13:10:38;93432.09;;;2.87
31528;BMP280;10206;48.012;10.030;2022-12-15T13:16:25;93431.97;;;2.62
31528;BMP280;10206;48.012;10.030;2022-12-15T13:18:57;93430.66;;;2.86
31528;BMP280;10206;48.012;10.030;2022-12-15T13:21:50;93435.28;;;2.93
31528;BMP280;10206;48.012;10.030;2022-12-15T13:24:40;93422.94;;;2.82
31528;BMP280;10206;48.012;10.030;2022-12-15T13:27:11;93417.38;;;2.88
31528;BMP280;10206;48.012;10.030;2022-12-15T13:30:17;93427.50;;;3.12
31528;BMP280;10206;48.012;10.030;2022-12-15T13:32:46;93418.47;;;3.24
31528;BMP280;10206;48.012;10.030;2022-12-15T13:45:50;93401.81;;;3.51
31528;BMP280;10206;48.012;10.030;2022-12-15T13:48:35;93395.47;;;2.91
31528;BMP280;10206;48.012;10.030;2022-12-15T13:51:25;93380.63;;;3.15
31528;BMP280;10206;48.012;10.030;2022-12-15T13:54:22;93377.94;;;3.15
31528;BMP280;10206;48.012;10.030;2022-12-15T14:00:00;93378.41;;;2.89
31528;BMP280;10206;48.012;10.030;2022-12-15T14:02:45;93376.50;;;2.74
31528;BMP280;10206;48.012;10.030;2022-12-15T14:05:15;93380.75;;;3.24
31528;BMP280;10206;48.012;10.030;2022-12-15T14:12:50;93366.31;;;3.45
31528;BMP280;10206;48.012;10.030;2022-12-15T14:15:19;93376.69;;;3.48
31528;BMP280;10206;48.012;10.030;2022-12-15T14:17:53;93372.78;;;3.42
31528;BMP280;10206;48.012;10.030;2022-12-15T14:20:28;93365.56;;;3.44
31528;BMP280;10206;48.012;10.030;2022-12-15T14:22:55;93367.25;;;3.64
31528;BMP280;10206;48.012;10.030;2022-12-15T14:25:24;93368.50;;;3.31
31528;BMP280;10206;48.012;10.030;2022-12-15T14:27:51;93368.28;;;3.44
31528;BMP280;10206;48.012;10.030;2022-12-15T14:30:26;93363.66;;;3.62
31528;BMP280;10206;48.012;10.030;2022-12-15T14:35:39;93360.91;;;3.12
31528;BMP280;10206;48.012;10.030;2022-12-15T14:38:11;93358.50;;;3.24
31528;BMP280;10206;48.012;10.030;2022-12-15T14:40:38;93354.50;;;3.33
31528;BMP280;10206;48.012;10.030;2022-12-15T14:43:10;93355.03;;;3.31
31528;BMP280;10206;48.012;10.030;2022-12-15T14:45:37;93356.34;;;3.22
31528;BMP280;10206;48.012;10.030;2022-12-15T14:48:08;93355.88;;;2.69
31528;BMP280;10206;48.012;10.030;2022-12-15T14:50:35;93362.38;;;2.98
31528;BMP280;10206;48.012;10.030;2022-12-15T14:53:11;93364.28;;;3.20
31528;BMP280;10206;48.012;10.030;2022-12-15T14:55:39;93362.72;;;3.10
31528;BMP280;10206;48.012;10.030;2022-12-15T15:00:54;93352.84;;;3.05
31528;BMP280;10206;48.012;10.030;2022-12-15T15:03:25;93351.69;;;2.91
31528;BMP280;10206;48.012;10.030;2022-12-15T15:05:57;93357.31;;;2.70
31528;BMP280;10206;48.012;10.030;2022-12-15T15:08:45;93352.84;;;3.12
31528;BMP280;10206;48.012;10.030;2022-12-15T15:13:44;93346.41;;;3.00
31528;BMP280;10206;48.012;10.030;2022-12-15T15:16:16;93350.31;;;2.74
31528;BMP280;10206;48.012;10.030;2022-12-15T15:18:47;93355.41;;;2.95
31528;BMP280;10206;48.012;10.030;2022-12-15T15:21:17;93358.47;;;2.52
31528;BMP280;10206;48.012;10.030;2022-12-15T15:24:25;93356.47;;;2.52
31528;BMP280;10206;48.012;10.030;2022-12-15T15:26:54;93349.03;;;2.75
31528;BMP280;10206;48.012;10.030;2022-12-15T15:29:40;93347.06;;;2.76
31528;BMP280;10206;48.012;10.030;2022-12-15T15:32:19;93346.06;;;2.96
31528;BMP280;10206;48.012;10.030;2022-12-15T15:34:46;93343.16;;;3.09
31528;BMP280;10206;48.012;10.030;2022-12-15T15:37:22;93352.66;;;2.63
31528;BMP280;10206;48.012;10.030;2022-12-15T15:39:50;93344.00;;;2.80
31528;BMP280;10206;48.012;10.030;2022-12-15T15:42:16;93344.88;;;2.82
31528;BMP280;10206;48.012;10.030;2022-12-15T15:44:42;93343.00;;;2.52
31528;BMP280;10206;48.012;10.030;2022-12-15T15:47:24;93346.13;;;2.89
31528;BMP280;10206;48.012;10.030;2022-12-15T15:49:51;93344.59;;;3.03
31528;BMP280;10206;48.012;10.030;2022-12-15T15:52:18;93336.66;;;2.72
31528;BMP280;10206;48.012;10.030;2022-12-15T15:54:44;93340.06;;;2.81
31528;BMP280;10206;48.012;10.030;2022-12-15T15:57:13;93339.25;;;2.95
31528;BMP280;10206;48.012;10.030;2022-12-15T15:59:41;93336.34;;;3.01
31528;BMP280;10206;48.012;10.030;2022-12-15T16:02:12;93336.19;;;2.99
31528;BMP280;10206;48.012;10.030;2022-12-15T16:04:40;93335.34;;;2.89
31528;BMP280;10206;48.012;10.030;2022-12-15T16:07:24;93335.25;;;3.04
31528;BMP280;10206;48.012;10.030;2022-12-15T16:09:53;93327.03;;;2.62
31528;BMP280;10206;48.012;10.030;2022-12-15T16:12:28;93320.63;;;2.90
31528;BMP280;10206;48.012;10.030;2022-12-15T16:14:55;93321.16;;;2.41
31528;BMP280;10206;48.012;10.030;2022-12-15T16:17:22;93315.06;;;2.33
31528;BMP280;10206;48.012;10.030;2022-12-15T16:19:48;93311.03;;;2.64
31528;BMP280;10206;48.012;10.030;2022-12-15T16:22:19;93319.63;;;2.62
31528;BMP280;10206;48.012;10.030;2022-12-15T16:24:46;93326.63;;;2.73
31528;BMP280;10206;48.012;10.030;2022-12-15T16:27:14;93323.56;;;2.77
31528;BMP280;10206;48.012;10.030;2022-12-15T16:29:41;93332.66;;;2.89
31528;BMP280;10206;48.012;10.030;2022-12-15T16:32:10;93320.66;;;2.82